OEBA/ABT METAR and TAF weather

Enter ICAO airport designator
Station Type Date Time Source
OEBA METAR 2020/07/11 19:00 UTC NOAA

OEBA 111900Z 35010KT 9999 FEW030 29/01 Q1016 NOSIG


Station Type Date Time Source
OEBA Decoded METAR 2020/07/11 19:00 UTC NOAA

Al Baha, Saudi Arabia (OEBA) 20-18N 041-38E 1662M
Jul 11, 2020 - 03:00 PM EDT / 2020.07.11 1900 UTC
Wind: from the N (350 degrees) at 12 MPH (10 KT):0
Visibility: greater than 7 mile(s):0
Sky conditions: mostly clear
Temperature: 84 F (29 C)
Dew Point: 33 F (1 C)
Relative Humidity: 16%
Pressure (altimeter): 30.00 in. Hg (1016 hPa)
ob: OEBA 111900Z 35010KT 9999 FEW030 29/01 Q1016 NOSIG
cycle: 19

Station Type Date Time Source
OEBA TAF 2020/07/11 12:03 UTC NOAA

TAF OEBA 111200Z 1112/1218 33020KT 9999 FEW030
BECMG 1120/1122 29014KT

Example: see airport list